Terminal Aerodrome Forecast
Issued by NWS Paducah, KY

Home | Current Version | Previous Version | Text Only | Print | Product List | Glossary On
Versions: 1 2 3 4 5 6 7 8 9 10 11 12 13 14 15 16
000
FTUS43 KPAH 191704 AAE
TAFPAH
TAF AMD
KPAH 191704Z 1917/2012 VRB03KT 3SM BR BKN002
      TEMPO 1917/1919 1SM BR SCT002 BKN007
     FM191900 17004KT P6SM SCT010
     FM200000 15003KT P6SM BKN020
     FM200600 13002KT 3SM BR SCT010
      TEMPO 2008/2012 1SM BR BKN010=

USA.gov is the U.S. government's official web portal to all federal, state and local government web resources and services.